createdAt,value
2018-11-23T05:00:17.671Z,65.03
2018-11-23T05:02:40.439Z,68.23
2018-11-23T05:05:03.342Z,58.30
2018-11-23T05:07:26.021Z,63.03
2018-11-23T05:09:48.794Z,62.07
2018-11-23T05:12:11.488Z,66.97
2018-11-23T05:14:35.125Z,64.70
2018-11-23T06:03:15.030Z,56.67
2018-11-23T06:05:37.941Z,52.70
2018-11-23T06:08:00.728Z,57.10
2018-11-23T06:10:24.179Z,54.53
2018-11-23T06:12:46.942Z,52.23
2018-11-23T07:04:28.144Z,48.90
2018-11-23T07:06:50.886Z,49.23
2018-11-23T07:09:13.877Z,48.87
2018-11-23T07:11:36.698Z,40.60
2018-11-23T07:14:03.917Z,44.37
2018-11-23T08:02:36.584Z,36.17
2018-11-23T08:04:59.432Z,34.73
2018-11-23T08:07:22.111Z,34.57
2018-11-23T08:09:44.837Z,28.10
2018-11-23T08:12:07.681Z,32.43
2018-11-23T08:14:30.380Z,32.63
2018-11-23T09:03:03.321Z,30.87
2018-11-23T09:05:26.089Z,30.20
2018-11-23T09:07:50.020Z,27.80
2018-11-23T09:10:15.129Z,28.40
2018-11-23T09:12:38.213Z,26.00
2018-11-23T09:15:00.937Z,27.10
2018-11-23T10:03:29.696Z,21.17
2018-11-23T10:05:52.448Z,20.93
2018-11-23T10:08:15.105Z,23.87
2018-11-23T10:10:37.769Z,20.07
2018-11-23T10:13:00.520Z,20.90
2018-11-23T11:01:40.652Z,13.40
2018-11-23T11:04:09.194Z,13.40
2018-11-23T11:06:37.787Z,15.63
2018-11-23T11:09:00.484Z,14.03
2018-11-23T11:11:23.172Z,15.07
2018-11-23T11:13:45.848Z,15.07
2018-11-23T12:02:27.762Z,13.67
2018-11-23T12:04:50.805Z,14.60
2018-11-23T12:07:17.486Z,14.60
2018-11-23T12:09:40.339Z,14.23
2018-11-23T12:12:03.384Z,13.37
2018-11-23T12:14:26.132Z,13.90
2018-11-23T13:03:02.392Z,17.77
2018-11-23T13:05:26.279Z,16.43
2018-11-23T13:07:50.300Z,16.33
2018-11-23T13:10:13.098Z,15.93
2018-11-23T14:01:52.769Z,17.43
2018-11-23T14:04:15.590Z,24.70
2018-11-23T14:06:38.305Z,18.73
2018-11-23T14:09:00.969Z,20.83
2018-11-23T14:11:23.633Z,18.93
2018-11-23T14:13:46.274Z,18.70
2018-11-23T14:43:54.149Z,17.17
2018-11-23T14:46:16.841Z,18.30
2018-11-23T15:01:00.506Z,16.87
2018-11-23T15:03:23.867Z,19.67
2018-11-23T15:05:46.554Z,17.00
2018-11-23T15:08:09.276Z,19.40
2018-11-23T15:10:33.016Z,19.80
2018-11-23T15:12:58.253Z,18.37
2018-11-23T16:01:38.412Z,17.47
2018-11-23T16:04:01.245Z,18.83
2018-11-23T16:06:24.017Z,20.53
2018-11-23T17:01:13.979Z,30.77
2018-11-23T17:03:36.680Z,32.57
2018-11-23T17:06:01.180Z,30.53
2018-11-23T17:08:23.884Z,32.67
2018-11-23T17:10:46.661Z,34.67
2018-11-23T17:13:09.369Z,28.13
2018-11-23T18:01:51.752Z,24.60
2018-11-23T18:04:14.505Z,33.97
2018-11-23T18:06:37.169Z,38.23
2018-11-23T18:08:59.989Z,30.13
2018-11-23T18:11:22.660Z,34.60
2018-11-23T19:02:44.557Z,58.20
2018-11-23T19:05:15.842Z,54.90
2018-11-23T19:07:38.621Z,51.90
2018-11-23T19:10:01.314Z,59.90
2018-11-23T19:12:23.987Z,53.07
2018-11-23T19:14:46.658Z,57.70
2018-11-23T20:00:24.852Z,48.60
2018-11-23T20:02:47.570Z,50.27
2018-11-23T20:05:10.312Z,50.30
2018-11-23T20:07:32.996Z,37.13
2018-11-23T20:09:55.653Z,43.97
2018-11-23T20:12:18.360Z,37.80
2018-11-23T20:14:41.008Z,40.50
2018-11-23T21:03:14.235Z,36.87
2018-11-23T21:05:36.940Z,34.10
2018-11-23T21:07:59.652Z,37.70
2018-11-23T21:10:24.050Z,34.03
2018-11-23T21:12:46.751Z,32.90
